sensor_id;sensor_type;location;lat;lon;timestamp;P1;durP1;ratioP1;P2;durP2;ratioP2
40072;SDS011;25774;52.256;9.356;2024-01-15T00:02:06;15.63;;;7.70;;
40072;SDS011;25774;52.256;9.356;2024-01-15T00:04:36;12.73;;;6.53;;
40072;SDS011;25774;52.256;9.356;2024-01-15T00:07:01;14.95;;;7.28;;
40072;SDS011;25774;52.256;9.356;2024-01-15T00:09:26;18.97;;;8.10;;
40072;SDS011;25774;52.256;9.356;2024-01-15T00:11:52;18.23;;;6.00;;
40072;SDS011;25774;52.256;9.356;2024-01-15T00:14:19;15.13;;;7.20;;
40072;SDS011;25774;52.256;9.356;2024-01-15T00:16:45;16.02;;;7.88;;
40072;SDS011;25774;52.256;9.356;2024-01-15T00:19:10;20.33;;;9.27;;
40072;SDS011;25774;52.256;9.356;2024-01-15T00:21:35;15.33;;;7.30;;
40072;SDS011;25774;52.256;9.356;2024-01-15T00:24:01;17.37;;;8.40;;
40072;SDS011;25774;52.256;9.356;2024-01-15T00:26:27;26.87;;;8.83;;
40072;SDS011;25774;52.256;9.356;2024-01-15T00:28:52;26.35;;;9.90;;
40072;SDS011;25774;52.256;9.356;2024-01-15T00:31:17;17.40;;;8.37;;
40072;SDS011;25774;52.256;9.356;2024-01-15T00:33:43;17.37;;;8.33;;
40072;SDS011;25774;52.256;9.356;2024-01-15T00:36:08;19.30;;;8.13;;
40072;SDS011;25774;52.256;9.356;2024-01-15T00:38:33;15.10;;;7.13;;
40072;SDS011;25774;52.256;9.356;2024-01-15T00:40:58;18.70;;;8.93;;
40072;SDS011;25774;52.256;9.356;2024-01-15T00:43:24;16.80;;;7.47;;
40072;SDS011;25774;52.256;9.356;2024-01-15T00:45:49;13.40;;;6.40;;
40072;SDS011;25774;52.256;9.356;2024-01-15T00:48:14;16.20;;;7.00;;
40072;SDS011;25774;52.256;9.356;2024-01-15T00:50:40;12.20;;;6.47;;
40072;SDS011;25774;52.256;9.356;2024-01-15T00:53:06;12.10;;;6.05;;
40072;SDS011;25774;52.256;9.356;2024-01-15T00:55:31;13.53;;;5.73;;
40072;SDS011;25774;52.256;9.356;2024-01-15T00:57:57;21.90;;;6.87;;
40072;SDS011;25774;52.256;9.356;2024-01-15T01:00:23;14.85;;;5.13;;
40072;SDS011;25774;52.256;9.356;2024-01-15T01:02:48;18.23;;;5.03;;
40072;SDS011;25774;52.256;9.356;2024-01-15T01:05:13;11.03;;;4.87;;
40072;SDS011;25774;52.256;9.356;2024-01-15T01:07:38;16.03;;;5.40;;
40072;SDS011;25774;52.256;9.356;2024-01-15T01:10:04;10.47;;;5.43;;
40072;SDS011;25774;52.256;9.356;2024-01-15T01:12:30;13.53;;;5.77;;
40072;SDS011;25774;52.256;9.356;2024-01-15T01:14:55;18.35;;;5.78;;
40072;SDS011;25774;52.256;9.356;2024-01-15T01:17:22;23.87;;;6.53;;
40072;SDS011;25774;52.256;9.356;2024-01-15T01:22:13;13.33;;;5.47;;
40072;SDS011;25774;52.256;9.356;2024-01-15T01:24:39;20.25;;;7.47;;
40072;SDS011;25774;52.256;9.356;2024-01-15T01:27:04;15.07;;;6.15;;
40072;SDS011;25774;52.256;9.356;2024-01-15T01:29:30;13.90;;;6.93;;
40072;SDS011;25774;52.256;9.356;2024-01-15T01:31:56;14.90;;;5.67;;
40072;SDS011;25774;52.256;9.356;2024-01-15T01:36:47;11.80;;;4.90;;
40072;SDS011;25774;52.256;9.356;2024-01-15T01:39:13;13.20;;;4.93;;
40072;SDS011;25774;52.256;9.356;2024-01-15T01:41:38;15.07;;;5.67;;
40072;SDS011;25774;52.256;9.356;2024-01-15T01:44:03;21.33;;;5.73;;
40072;SDS011;25774;52.256;9.356;2024-01-15T01:46:28;14.07;;;6.30;;
40072;SDS011;25774;52.256;9.356;2024-01-15T01:48:54;12.10;;;4.67;;
40072;SDS011;25774;52.256;9.356;2024-01-15T01:51:20;10.05;;;5.05;;
40072;SDS011;25774;52.256;9.356;2024-01-15T01:53:46;7.97;;;5.05;;
40072;SDS011;25774;52.256;9.356;2024-01-15T01:56:13;10.10;;;5.23;;
40072;SDS011;25774;52.256;9.356;2024-01-15T01:58:38;13.52;;;5.10;;
40072;SDS011;25774;52.256;9.356;2024-01-15T02:01:04;9.00;;;4.70;;
40072;SDS011;25774;52.256;9.356;2024-01-15T02:03:30;13.10;;;4.40;;
40072;SDS011;25774;52.256;9.356;2024-01-15T02:05:55;17.48;;;3.75;;
40072;SDS011;25774;52.256;9.356;2024-01-15T02:08:21;13.82;;;4.28;;
40072;SDS011;25774;52.256;9.356;2024-01-15T02:10:46;11.15;;;3.95;;
40072;SDS011;25774;52.256;9.356;2024-01-15T02:13:12;12.50;;;3.83;;
40072;SDS011;25774;52.256;9.356;2024-01-15T02:15:37;10.53;;;4.13;;
40072;SDS011;25774;52.256;9.356;2024-01-15T02:18:04;12.13;;;4.27;;
40072;SDS011;25774;52.256;9.356;2024-01-15T02:20:31;8.43;;;3.35;;
40072;SDS011;25774;52.256;9.356;2024-01-15T02:23:12;15.45;;;3.70;;
40072;SDS011;25774;52.256;9.356;2024-01-15T02:25:45;9.82;;;2.70;;
40072;SDS011;25774;52.256;9.356;2024-01-15T02:28:11;13.73;;;4.82;;
40072;SDS011;25774;52.256;9.356;2024-01-15T02:30:37;10.40;;;3.45;;
40072;SDS011;25774;52.256;9.356;2024-01-15T02:33:04;6.32;;;3.00;;
40072;SDS011;25774;52.256;9.356;2024-01-15T02:35:29;17.07;;;3.63;;
40072;SDS011;25774;52.256;9.356;2024-01-15T02:37:56;7.07;;;3.23;;
40072;SDS011;25774;52.256;9.356;2024-01-15T02:40:22;8.02;;;4.00;;
40072;SDS011;25774;52.256;9.356;2024-01-15T02:42:47;10.77;;;3.50;;
40072;SDS011;25774;52.256;9.356;2024-01-15T02:45:12;13.43;;;3.03;;
40072;SDS011;25774;52.256;9.356;2024-01-15T02:47:37;4.30;;;2.87;;
40072;SDS011;25774;52.256;9.356;2024-01-15T02:50:02;11.33;;;2.83;;
40072;SDS011;25774;52.256;9.356;2024-01-15T02:52:28;11.60;;;2.57;;
40072;SDS011;25774;52.256;9.356;2024-01-15T02:54:53;16.73;;;2.53;;
40072;SDS011;25774;52.256;9.356;2024-01-15T02:57:19;12.80;;;2.80;;
40072;SDS011;25774;52.256;9.356;2024-01-15T02:59:44;12.02;;;4.75;;
40072;SDS011;25774;52.256;9.356;2024-01-15T03:02:10;15.50;;;2.53;;
40072;SDS011;25774;52.256;9.356;2024-01-15T03:04:35;8.87;;;3.57;;
40072;SDS011;25774;52.256;9.356;2024-01-15T03:07:00;7.83;;;2.70;;
40072;SDS011;25774;52.256;9.356;2024-01-15T03:09:26;8.70;;;3.00;;
40072;SDS011;25774;52.256;9.356;2024-01-15T03:11:51;19.50;;;3.10;;
40072;SDS011;25774;52.256;9.356;2024-01-15T03:14:17;7.80;;;2.70;;
40072;SDS011;25774;52.256;9.356;2024-01-15T03:16:42;15.40;;;3.37;;
40072;SDS011;25774;52.256;9.356;2024-01-15T03:19:08;8.43;;;3.07;;
40072;SDS011;25774;52.256;9.356;2024-01-15T03:24:00;8.40;;;3.72;;
40072;SDS011;25774;52.256;9.356;2024-01-15T03:26:25;8.53;;;2.47;;
40072;SDS011;25774;52.256;9.356;2024-01-15T03:28:50;6.53;;;3.10;;
40072;SDS011;25774;52.256;9.356;2024-01-15T03:31:16;6.20;;;2.72;;
40072;SDS011;25774;52.256;9.356;2024-01-15T03:33:42;11.30;;;2.90;;
40072;SDS011;25774;52.256;9.356;2024-01-15T03:36:09;6.77;;;2.80;;
40072;SDS011;25774;52.256;9.356;2024-01-15T03:38:38;10.20;;;3.83;;
40072;SDS011;25774;52.256;9.356;2024-01-15T03:41:03;14.77;;;3.17;;
40072;SDS011;25774;52.256;9.356;2024-01-15T03:43:28;11.43;;;3.47;;
40072;SDS011;25774;52.256;9.356;2024-01-15T03:45:54;24.23;;;3.60;;
40072;SDS011;25774;52.256;9.356;2024-01-15T03:48:19;11.07;;;2.80;;
40072;SDS011;25774;52.256;9.356;2024-01-15T03:50:44;15.17;;;3.67;;
40072;SDS011;25774;52.256;9.356;2024-01-15T03:53:09;11.20;;;3.17;;
40072;SDS011;25774;52.256;9.356;2024-01-15T03:55:34;4.43;;;2.40;;
40072;SDS011;25774;52.256;9.356;2024-01-15T03:58:00;5.90;;;2.40;;
40072;SDS011;25774;52.256;9.356;2024-01-15T04:00:25;18.77;;;3.07;;
40072;SDS011;25774;52.256;9.356;2024-01-15T04:02:50;10.27;;;3.27;;
40072;SDS011;25774;52.256;9.356;2024-01-15T04:05:15;11.60;;;2.73;;
40072;SDS011;25774;52.256;9.356;2024-01-15T04:07:43;14.50;;;2.73;;
40072;SDS011;25774;52.256;9.356;2024-01-15T04:10:08;21.17;;;3.00;;
40072;SDS011;25774;52.256;9.356;2024-01-15T04:12:35;14.25;;;3.63;;
40072;SDS011;25774;52.256;9.356;2024-01-15T04:15:02;17.55;;;3.30;;
40072;SDS011;25774;52.256;9.356;2024-01-15T04:17:27;10.05;;;3.75;;
40072;SDS011;25774;52.256;9.356;2024-01-15T04:19:53;8.55;;;2.58;;
40072;SDS011;25774;52.256;9.356;2024-01-15T04:22:18;17.77;;;3.23;;
40072;SDS011;25774;52.256;9.356;2024-01-15T04:24:44;17.83;;;3.50;;
40072;SDS011;25774;52.256;9.356;2024-01-15T04:27:10;11.75;;;2.97;;
40072;SDS011;25774;52.256;9.356;2024-01-15T04:29:37;7.10;;;3.70;;
40072;SDS011;25774;52.256;9.356;2024-01-15T04:32:04;14.82;;;3.35;;
40072;SDS011;25774;52.256;9.356;2024-01-15T04:34:30;11.65;;;3.33;;
40072;SDS011;25774;52.256;9.356;2024-01-15T04:36:56;13.77;;;3.10;;
40072;SDS011;25774;52.256;9.356;2024-01-15T04:39:21;10.23;;;3.17;;
40072;SDS011;25774;52.256;9.356;2024-01-15T04:41:48;9.80;;;3.28;;
40072;SDS011;25774;52.256;9.356;2024-01-15T04:44:13;14.98;;;2.83;;
40072;SDS011;25774;52.256;9.356;2024-01-15T04:46:38;10.70;;;3.27;;
40072;SDS011;25774;52.256;9.356;2024-01-15T04:49:04;9.87;;;2.97;;
40072;SDS011;25774;52.256;9.356;2024-01-15T04:51:30;6.40;;;3.05;;
40072;SDS011;25774;52.256;9.356;2024-01-15T04:53:55;5.13;;;2.50;;
40072;SDS011;25774;52.256;9.356;2024-01-15T04:56:20;13.50;;;2.90;;
40072;SDS011;25774;52.256;9.356;2024-01-15T04:58:45;8.23;;;2.50;;
40072;SDS011;25774;52.256;9.356;2024-01-15T05:01:12;9.75;;;2.78;;
40072;SDS011;25774;52.256;9.356;2024-01-15T05:03:37;8.50;;;3.13;;
40072;SDS011;25774;52.256;9.356;2024-01-15T05:06:03;7.50;;;2.80;;
40072;SDS011;25774;52.256;9.356;2024-01-15T05:08:28;7.43;;;2.60;;
40072;SDS011;25774;52.256;9.356;2024-01-15T05:10:53;12.60;;;3.43;;
40072;SDS011;25774;52.256;9.356;2024-01-15T05:13:18;6.60;;;2.87;;
40072;SDS011;25774;52.256;9.356;2024-01-15T05:15:44;11.90;;;3.10;;
40072;SDS011;25774;52.256;9.356;2024-01-15T05:18:09;19.70;;;4.20;;
40072;SDS011;25774;52.256;9.356;2024-01-15T05:20:34;12.13;;;2.70;;
40072;SDS011;25774;52.256;9.356;2024-01-15T05:22:59;10.03;;;3.40;;
40072;SDS011;25774;52.256;9.356;2024-01-15T05:25:25;9.23;;;2.93;;
40072;SDS011;25774;52.256;9.356;2024-01-15T05:27:50;12.10;;;3.60;;
40072;SDS011;25774;52.256;9.356;2024-01-15T05:30:15;11.87;;;3.27;;
40072;SDS011;25774;52.256;9.356;2024-01-15T05:32:41;11.35;;;3.00;;
40072;SDS011;25774;52.256;9.356;2024-01-15T05:35:07;9.90;;;3.03;;
40072;SDS011;25774;52.256;9.356;2024-01-15T05:37:32;6.67;;;3.30;;
40072;SDS011;25774;52.256;9.356;2024-01-15T05:39:57;9.47;;;2.70;;
40072;SDS011;25774;52.256;9.356;2024-01-15T05:42:22;7.27;;;3.70;;
40072;SDS011;25774;52.256;9.356;2024-01-15T05:44:47;16.57;;;4.53;;
40072;SDS011;25774;52.256;9.356;2024-01-15T05:47:13;12.80;;;4.37;;
40072;SDS011;25774;52.256;9.356;2024-01-15T05:49:38;16.03;;;4.30;;
40072;SDS011;25774;52.256;9.356;2024-01-15T05:52:04;11.70;;;4.03;;
40072;SDS011;25774;52.256;9.356;2024-01-15T05:54:29;16.30;;;3.93;;
40072;SDS011;25774;52.256;9.356;2024-01-15T05:56:55;6.50;;;3.13;;
40072;SDS011;25774;52.256;9.356;2024-01-15T05:59:21;9.60;;;3.42;;
40072;SDS011;25774;52.256;9.356;2024-01-15T06:01:47;7.95;;;3.15;;
40072;SDS011;25774;52.256;9.356;2024-01-15T06:04:14;11.60;;;3.13;;
40072;SDS011;25774;52.256;9.356;2024-01-15T06:06:39;11.07;;;3.63;;
40072;SDS011;25774;52.256;9.356;2024-01-15T06:09:04;5.25;;;3.10;;
40072;SDS011;25774;52.256;9.356;2024-01-15T06:11:31;7.80;;;3.10;;
40072;SDS011;25774;52.256;9.356;2024-01-15T06:13:56;8.30;;;3.60;;
40072;SDS011;25774;52.256;9.356;2024-01-15T06:16:21;5.00;;;3.13;;
40072;SDS011;25774;52.256;9.356;2024-01-15T06:18:48;10.25;;;3.20;;
40072;SDS011;25774;52.256;9.356;2024-01-15T06:21:13;5.90;;;3.20;;
40072;SDS011;25774;52.256;9.356;2024-01-15T06:23:39;12.18;;;3.22;;
40072;SDS011;25774;52.256;9.356;2024-01-15T06:26:05;12.83;;;3.07;;
40072;SDS011;25774;52.256;9.356;2024-01-15T06:28:30;11.67;;;3.40;;
40072;SDS011;25774;52.256;9.356;2024-01-15T06:30:55;9.40;;;3.07;;
40072;SDS011;25774;52.256;9.356;2024-01-15T06:33:22;11.63;;;3.13;;
40072;SDS011;25774;52.256;9.356;2024-01-15T06:35:48;10.02;;;3.13;;
40072;SDS011;25774;52.256;9.356;2024-01-15T06:40:39;9.53;;;2.80;;
40072;SDS011;25774;52.256;9.356;2024-01-15T06:43:12;8.00;;;2.47;;
40072;SDS011;25774;52.256;9.356;2024-01-15T06:45:38;16.17;;;3.25;;
40072;SDS011;25774;52.256;9.356;2024-01-15T06:48:05;10.52;;;3.13;;
40072;SDS011;25774;52.256;9.356;2024-01-15T06:50:31;9.55;;;3.63;;
40072;SDS011;25774;52.256;9.356;2024-01-15T06:52:56;10.90;;;3.83;;
40072;SDS011;25774;52.256;9.356;2024-01-15T06:55:21;10.10;;;2.80;;
40072;SDS011;25774;52.256;9.356;2024-01-15T06:57:47;8.07;;;3.27;;
40072;SDS011;25774;52.256;9.356;2024-01-15T07:00:12;17.40;;;3.47;;
40072;SDS011;25774;52.256;9.356;2024-01-15T07:02:37;7.82;;;3.33;;
40072;SDS011;25774;52.256;9.356;2024-01-15T07:05:03;18.80;;;4.53;;
40072;SDS011;25774;52.256;9.356;2024-01-15T07:07:32;7.18;;;2.95;;
40072;SDS011;25774;52.256;9.356;2024-01-15T07:09:57;10.80;;;3.80;;
40072;SDS011;25774;52.256;9.356;2024-01-15T07:12:22;11.80;;;3.13;;
40072;SDS011;25774;52.256;9.356;2024-01-15T07:14:48;9.90;;;3.10;;
40072;SDS011;25774;52.256;9.356;2024-01-15T07:17:13;9.05;;;3.15;;
40072;SDS011;25774;52.256;9.356;2024-01-15T07:19:40;5.60;;;2.90;;
40072;SDS011;25774;52.256;9.356;2024-01-15T07:22:06;20.05;;;4.28;;
40072;SDS011;25774;52.256;9.356;2024-01-15T07:26:59;7.90;;;3.55;;
40072;SDS011;25774;52.256;9.356;2024-01-15T07:29:24;7.53;;;3.37;;
40072;SDS011;25774;52.256;9.356;2024-01-15T07:31:49;7.57;;;3.17;;
40072;SDS011;25774;52.256;9.356;2024-01-15T07:34:16;9.23;;;2.92;;
40072;SDS011;25774;52.256;9.356;2024-01-15T07:36:46;11.73;;;4.43;;
40072;SDS011;25774;52.256;9.356;2024-01-15T07:39:11;13.00;;;4.38;;
40072;SDS011;25774;52.256;9.356;2024-01-15T07:41:36;11.93;;;4.10;;
40072;SDS011;25774;52.256;9.356;2024-01-15T07:44:02;10.03;;;3.47;;
40072;SDS011;25774;52.256;9.356;2024-01-15T07:46:27;13.97;;;4.33;;
40072;SDS011;25774;52.256;9.356;2024-01-15T07:48:52;9.73;;;3.97;;
40072;SDS011;25774;52.256;9.356;2024-01-15T07:51:24;10.88;;;4.03;;
40072;SDS011;25774;52.256;9.356;2024-01-15T07:53:50;10.40;;;3.95;;
40072;SDS011;25774;52.256;9.356;2024-01-15T07:56:15;10.80;;;4.20;;
40072;SDS011;25774;52.256;9.356;2024-01-15T07:58:41;13.05;;;4.97;;
40072;SDS011;25774;52.256;9.356;2024-01-15T08:01:06;10.60;;;4.23;;
40072;SDS011;25774;52.256;9.356;2024-01-15T08:03:31;14.47;;;4.23;;
40072;SDS011;25774;52.256;9.356;2024-01-15T08:05:56;7.53;;;3.63;;
40072;SDS011;25774;52.256;9.356;2024-01-15T08:08:24;13.00;;;4.47;;
40072;SDS011;25774;52.256;9.356;2024-01-15T08:10:50;10.05;;;4.40;;
40072;SDS011;25774;52.256;9.356;2024-01-15T08:13:16;12.53;;;4.73;;
40072;SDS011;25774;52.256;9.356;2024-01-15T08:15:41;11.07;;;3.83;;
40072;SDS011;25774;52.256;9.356;2024-01-15T08:18:06;15.57;;;4.37;;
40072;SDS011;25774;52.256;9.356;2024-01-15T08:20:32;16.70;;;5.10;;
40072;SDS011;25774;52.256;9.356;2024-01-15T08:22:57;10.80;;;4.80;;
40072;SDS011;25774;52.256;9.356;2024-01-15T08:25:22;17.63;;;5.67;;
40072;SDS011;25774;52.256;9.356;2024-01-15T08:27:47;16.93;;;5.47;;
40072;SDS011;25774;52.256;9.356;2024-01-15T08:30:13;10.83;;;4.47;;
40072;SDS011;25774;52.256;9.356;2024-01-15T08:32:39;10.20;;;4.20;;
40072;SDS011;25774;52.256;9.356;2024-01-15T08:35:07;12.68;;;5.15;;
40072;SDS011;25774;52.256;9.356;2024-01-15T08:37:34;14.70;;;5.20;;
40072;SDS011;25774;52.256;9.356;2024-01-15T08:39:59;14.60;;;4.32;;
40072;SDS011;25774;52.256;9.356;2024-01-15T08:42:24;11.07;;;4.57;;
40072;SDS011;25774;52.256;9.356;2024-01-15T08:44:49;11.47;;;4.50;;
40072;SDS011;25774;52.256;9.356;2024-01-15T08:47:15;18.95;;;4.80;;
40072;SDS011;25774;52.256;9.356;2024-01-15T08:49:40;13.43;;;5.50;;
40072;SDS011;25774;52.256;9.356;2024-01-15T08:52:07;26.42;;;4.65;;
40072;SDS011;25774;52.256;9.356;2024-01-15T08:54:32;14.67;;;4.90;;
40072;SDS011;25774;52.256;9.356;2024-01-15T08:57:00;17.47;;;5.03;;
40072;SDS011;25774;52.256;9.356;2024-01-15T08:59:25;15.02;;;4.90;;
40072;SDS011;25774;52.256;9.356;2024-01-15T09:01:53;10.50;;;4.95;;
40072;SDS011;25774;52.256;9.356;2024-01-15T09:04:18;16.00;;;4.88;;
40072;SDS011;25774;52.256;9.356;2024-01-15T09:06:45;17.25;;;4.60;;
40072;SDS011;25774;52.256;9.356;2024-01-15T09:09:12;19.27;;;4.88;;
40072;SDS011;25774;52.256;9.356;2024-01-15T09:11:37;8.53;;;4.13;;
40072;SDS011;25774;52.256;9.356;2024-01-15T09:14:02;16.70;;;4.43;;
40072;SDS011;25774;52.256;9.356;2024-01-15T09:16:28;15.17;;;4.83;;
40072;SDS011;25774;52.256;9.356;2024-01-15T09:18:53;12.50;;;4.60;;
40072;SDS011;25774;52.256;9.356;2024-01-15T09:21:19;11.10;;;4.60;;
40072;SDS011;25774;52.256;9.356;2024-01-15T09:23:45;15.15;;;4.05;;
40072;SDS011;25774;52.256;9.356;2024-01-15T09:26:11;11.00;;;4.20;;
40072;SDS011;25774;52.256;9.356;2024-01-15T09:28:36;13.43;;;4.23;;
40072;SDS011;25774;52.256;9.356;2024-01-15T09:31:01;8.17;;;3.53;;
40072;SDS011;25774;52.256;9.356;2024-01-15T09:33:26;9.63;;;3.53;;
40072;SDS011;25774;52.256;9.356;2024-01-15T09:35:52;9.57;;;3.80;;
40072;SDS011;25774;52.256;9.356;2024-01-15T09:38:17;8.93;;;3.23;;
40072;SDS011;25774;52.256;9.356;2024-01-15T09:40:44;6.95;;;3.58;;
40072;SDS011;25774;52.256;9.356;2024-01-15T09:43:10;12.45;;;3.70;;
40072;SDS011;25774;52.256;9.356;2024-01-15T09:45:35;7.82;;;3.38;;
40072;SDS011;25774;52.256;9.356;2024-01-15T09:48:02;12.50;;;4.03;;
40072;SDS011;25774;52.256;9.356;2024-01-15T09:52:52;11.70;;;3.13;;
40072;SDS011;25774;52.256;9.356;2024-01-15T09:55:18;6.88;;;2.75;;
40072;SDS011;25774;52.256;9.356;2024-01-15T09:57:44;9.10;;;3.33;;
40072;SDS011;25774;52.256;9.356;2024-01-15T10:00:10;4.37;;;2.63;;
40072;SDS011;25774;52.256;9.356;2024-01-15T10:02:36;5.97;;;2.63;;
40072;SDS011;25774;52.256;9.356;2024-01-15T10:05:01;9.97;;;2.30;;
40072;SDS011;25774;52.256;9.356;2024-01-15T10:07:27;7.25;;;2.63;;
40072;SDS011;25774;52.256;9.356;2024-01-15T10:09:55;10.68;;;3.55;;
40072;SDS011;25774;52.256;9.356;2024-01-15T10:12:23;8.18;;;3.17;;
40072;SDS011;25774;52.256;9.356;2024-01-15T10:14:51;9.57;;;3.00;;
40072;SDS011;25774;52.256;9.356;2024-01-15T10:17:16;6.28;;;2.65;;
40072;SDS011;25774;52.256;9.356;2024-01-15T10:19:42;7.20;;;3.25;;
40072;SDS011;25774;52.256;9.356;2024-01-15T10:22:09;7.93;;;3.10;;
40072;SDS011;25774;52.256;9.356;2024-01-15T10:24:37;5.80;;;2.85;;
40072;SDS011;25774;52.256;9.356;2024-01-15T10:27:07;7.78;;;3.17;;
40072;SDS011;25774;52.256;9.356;2024-01-15T10:29:33;12.45;;;3.00;;
40072;SDS011;25774;52.256;9.356;2024-01-15T10:31:58;5.83;;;3.00;;
40072;SDS011;25774;52.256;9.356;2024-01-15T10:34:24;7.93;;;3.20;;
40072;SDS011;25774;52.256;9.356;2024-01-15T10:36:49;8.57;;;3.65;;
40072;SDS011;25774;52.256;9.356;2024-01-15T10:39:20;8.27;;;2.92;;
40072;SDS011;25774;52.256;9.356;2024-01-15T10:41:46;7.93;;;3.22;;
40072;SDS011;25774;52.256;9.356;2024-01-15T10:44:11;5.90;;;2.73;;
40072;SDS011;25774;52.256;9.356;2024-01-15T10:46:36;8.43;;;3.40;;
40072;SDS011;25774;52.256;9.356;2024-01-15T10:49:02;6.65;;;3.25;;
40072;SDS011;25774;52.256;9.356;2024-01-15T10:51:27;14.57;;;3.77;;
40072;SDS011;25774;52.256;9.356;2024-01-15T10:53:53;8.50;;;3.88;;
40072;SDS011;25774;52.256;9.356;2024-01-15T10:56:18;7.53;;;3.30;;
40072;SDS011;25774;52.256;9.356;2024-01-15T10:58:44;11.77;;;3.40;;
40072;SDS011;25774;52.256;9.356;2024-01-15T11:03:36;10.15;;;3.28;;
40072;SDS011;25774;52.256;9.356;2024-01-15T11:06:02;9.00;;;4.00;;
40072;SDS011;25774;52.256;9.356;2024-01-15T11:08:29;12.65;;;4.30;;
40072;SDS011;25774;52.256;9.356;2024-01-15T11:13:23;18.75;;;4.20;;
40072;SDS011;25774;52.256;9.356;2024-01-15T11:16:07;15.02;;;4.30;;
40072;SDS011;25774;52.256;9.356;2024-01-15T11:18:36;12.02;;;4.20;;
40072;SDS011;25774;52.256;9.356;2024-01-15T11:21:24;14.80;;;3.95;;
40072;SDS011;25774;52.256;9.356;2024-01-15T11:23:56;19.40;;;3.87;;
40072;SDS011;25774;52.256;9.356;2024-01-15T11:26:32;8.52;;;3.88;;
40072;SDS011;25774;52.256;9.356;2024-01-15T11:28:58;15.63;;;4.00;;
40072;SDS011;25774;52.256;9.356;2024-01-15T11:34:08;10.98;;;3.45;;
40072;SDS011;25774;52.256;9.356;2024-01-15T11:41:59;13.80;;;4.05;;
40072;SDS011;25774;52.256;9.356;2024-01-15T11:44:25;15.15;;;4.32;;
40072;SDS011;25774;52.256;9.356;2024-01-15T11:47:00;13.90;;;3.05;;
40072;SDS011;25774;52.256;9.356;2024-01-15T11:51:59;9.80;;;3.30;;
40072;SDS011;25774;52.256;9.356;2024-01-15T11:54:25;17.02;;;3.72;;
40072;SDS011;25774;52.256;9.356;2024-01-15T11:56:53;17.60;;;5.15;;
40072;SDS011;25774;52.256;9.356;2024-01-15T11:59:19;11.27;;;3.35;;
40072;SDS011;25774;52.256;9.356;2024-01-15T12:01:44;15.23;;;3.77;;
40072;SDS011;25774;52.256;9.356;2024-01-15T12:04:10;14.13;;;3.53;;
40072;SDS011;25774;52.256;9.356;2024-01-15T12:09:07;9.33;;;3.27;;
40072;SDS011;25774;52.256;9.356;2024-01-15T12:11:32;10.98;;;3.13;;
40072;SDS011;25774;52.256;9.356;2024-01-15T12:14:01;8.10;;;2.83;;
40072;SDS011;25774;52.256;9.356;2024-01-15T12:18:53;14.65;;;4.30;;
40072;SDS011;25774;52.256;9.356;2024-01-15T12:21:19;10.80;;;3.37;;
40072;SDS011;25774;52.256;9.356;2024-01-15T12:23:47;11.68;;;3.63;;
40072;SDS011;25774;52.256;9.356;2024-01-15T12:26:13;14.50;;;3.45;;
40072;SDS011;25774;52.256;9.356;2024-01-15T12:28:39;9.13;;;2.87;;
40072;SDS011;25774;52.256;9.356;2024-01-15T12:31:05;11.13;;;3.10;;
40072;SDS011;25774;52.256;9.356;2024-01-15T12:33:30;24.38;;;4.03;;
40072;SDS011;25774;52.256;9.356;2024-01-15T12:35:55;11.97;;;2.83;;
40072;SDS011;25774;52.256;9.356;2024-01-15T12:38:24;6.77;;;2.90;;
40072;SDS011;25774;52.256;9.356;2024-01-15T12:40:49;11.60;;;3.33;;
40072;SDS011;25774;52.256;9.356;2024-01-15T12:43:14;15.10;;;3.17;;
40072;SDS011;25774;52.256;9.356;2024-01-15T12:45:40;11.83;;;3.30;;
40072;SDS011;25774;52.256;9.356;2024-01-15T12:48:05;9.77;;;3.03;;
40072;SDS011;25774;52.256;9.356;2024-01-15T12:50:30;10.97;;;2.80;;
40072;SDS011;25774;52.256;9.356;2024-01-15T12:52:58;15.65;;;3.47;;
40072;SDS011;25774;52.256;9.356;2024-01-15T12:55:25;12.82;;;3.28;;
40072;SDS011;25774;52.256;9.356;2024-01-15T12:57:50;5.90;;;3.10;;
40072;SDS011;25774;52.256;9.356;2024-01-15T13:00:19;14.68;;;3.20;;
40072;SDS011;25774;52.256;9.356;2024-01-15T13:02:44;11.50;;;2.83;;
40072;SDS011;25774;52.256;9.356;2024-01-15T13:05:09;11.60;;;2.93;;
40072;SDS011;25774;52.256;9.356;2024-01-15T13:07:39;11.43;;;3.15;;
40072;SDS011;25774;52.256;9.356;2024-01-15T13:10:05;10.63;;;2.80;;
40072;SDS011;25774;52.256;9.356;2024-01-15T13:12:30;7.55;;;2.63;;
40072;SDS011;25774;52.256;9.356;2024-01-15T13:14:58;10.45;;;2.40;;
40072;SDS011;25774;52.256;9.356;2024-01-15T13:17:23;14.15;;;3.10;;
40072;SDS011;25774;52.256;9.356;2024-01-15T13:19:48;14.13;;;2.53;;
40072;SDS011;25774;52.256;9.356;2024-01-15T13:22:14;9.43;;;2.83;;
40072;SDS011;25774;52.256;9.356;2024-01-15T13:24:40;9.45;;;2.50;;
40072;SDS011;25774;52.256;9.356;2024-01-15T13:27:06;4.63;;;2.40;;
40072;SDS011;25774;52.256;9.356;2024-01-15T13:29:31;7.78;;;3.05;;
40072;SDS011;25774;52.256;9.356;2024-01-15T13:32:00;11.43;;;2.97;;
40072;SDS011;25774;52.256;9.356;2024-01-15T13:34:25;12.88;;;3.22;;
40072;SDS011;25774;52.256;9.356;2024-01-15T13:36:51;16.43;;;3.63;;
40072;SDS011;25774;52.256;9.356;2024-01-15T13:39:19;8.85;;;2.80;;
40072;SDS011;25774;52.256;9.356;2024-01-15T13:41:48;10.55;;;3.50;;
40072;SDS011;25774;52.256;9.356;2024-01-15T13:44:15;7.82;;;2.88;;
40072;SDS011;25774;52.256;9.356;2024-01-15T13:46:40;9.57;;;2.40;;
40072;SDS011;25774;52.256;9.356;2024-01-15T13:49:05;8.63;;;3.03;;
40072;SDS011;25774;52.256;9.356;2024-01-15T13:51:32;12.03;;;3.20;;
40072;SDS011;25774;52.256;9.356;2024-01-15T13:53:57;7.97;;;2.33;;
40072;SDS011;25774;52.256;9.356;2024-01-15T13:56:22;5.80;;;2.60;;
40072;SDS011;25774;52.256;9.356;2024-01-15T13:58:47;7.87;;;3.73;;
40072;SDS011;25774;52.256;9.356;2024-01-15T14:01:14;9.00;;;3.20;;
40072;SDS011;25774;52.256;9.356;2024-01-15T14:03:39;9.23;;;3.00;;
40072;SDS011;25774;52.256;9.356;2024-01-15T14:06:05;8.13;;;3.10;;
40072;SDS011;25774;52.256;9.356;2024-01-15T14:08:34;6.82;;;2.90;;
40072;SDS011;25774;52.256;9.356;2024-01-15T14:11:00;9.82;;;3.13;;
40072;SDS011;25774;52.256;9.356;2024-01-15T14:13:25;5.07;;;2.60;;
40072;SDS011;25774;52.256;9.356;2024-01-15T14:15:50;10.07;;;2.87;;
40072;SDS011;25774;52.256;9.356;2024-01-15T14:18:18;7.10;;;3.20;;
40072;SDS011;25774;52.256;9.356;2024-01-15T14:20:43;11.85;;;3.72;;
40072;SDS011;25774;52.256;9.356;2024-01-15T14:23:09;16.57;;;4.10;;
40072;SDS011;25774;52.256;9.356;2024-01-15T14:25:34;14.77;;;4.23;;
40072;SDS011;25774;52.256;9.356;2024-01-15T14:27:59;12.27;;;3.80;;
40072;SDS011;25774;52.256;9.356;2024-01-15T14:30:24;12.60;;;3.50;;
40072;SDS011;25774;52.256;9.356;2024-01-15T14:32:50;13.03;;;4.80;;
40072;SDS011;25774;52.256;9.356;2024-01-15T14:35:15;8.10;;;3.53;;
40072;SDS011;25774;52.256;9.356;2024-01-15T14:37:40;9.30;;;4.57;;
40072;SDS011;25774;52.256;9.356;2024-01-15T14:40:06;10.93;;;4.60;;
40072;SDS011;25774;52.256;9.356;2024-01-15T14:42:33;15.05;;;3.50;;
40072;SDS011;25774;52.256;9.356;2024-01-15T14:44:59;8.33;;;3.80;;
40072;SDS011;25774;52.256;9.356;2024-01-15T14:47:24;6.70;;;3.17;;
40072;SDS011;25774;52.256;9.356;2024-01-15T14:49:49;7.43;;;3.27;;
40072;SDS011;25774;52.256;9.356;2024-01-15T14:52:14;8.87;;;3.30;;
40072;SDS011;25774;52.256;9.356;2024-01-15T14:54:40;9.70;;;2.97;;
40072;SDS011;25774;52.256;9.356;2024-01-15T14:57:07;8.55;;;3.03;;
40072;SDS011;25774;52.256;9.356;2024-01-15T14:59:32;10.38;;;2.80;;
40072;SDS011;25774;52.256;9.356;2024-01-15T15:01:58;8.23;;;2.60;;
40072;SDS011;25774;52.256;9.356;2024-01-15T15:04:23;4.57;;;2.30;;
40072;SDS011;25774;52.256;9.356;2024-01-15T15:06:48;10.60;;;2.97;;